Time;durP1;ratioP1;P1;durP2;ratioP2;P2;SDS_P1;SDS_P2;PMS_P1;PMS_P2;Temp;Humidity;BMP_temperature;BMP_pressure;BME280_temperature;BME280_humidity;BME280_pressure;Samples;Min_cycle;Max_cycle;Signal;HPM_P1;HPM_P2
2024/03/21 00:00:30;;;;;;;11.50;10.10;;;13.30;99.90;;;;;;5033343;28;20827;-71
2024/03/21 00:02:56;;;;;;;12.20;10.90;;;13.30;99.90;;;;;;5032063;28;20187;-68
2024/03/21 00:05:22;;;;;;;10.90;9.90;;;13.20;99.90;;;;;;5032432;28;20437;-70
2024/03/21 00:07:49;;;;;;;10.37;9.17;;;13.20;99.90;;;;;;5031964;28;21211;-69
2024/03/21 00:10:19;;;;;;;14.53;10.27;;;13.20;99.90;;;;;;5031608;28;20194;-70
2024/03/21 00:12:49;;;;;;;11.43;10.30;;;13.20;99.90;;;;;;5034224;28;20467;-68
2024/03/21 00:15:15;;;;;;;10.83;9.73;;;13.20;99.90;;;;;;5034367;28;20455;-70
2024/03/21 00:17:42;;;;;;;11.13;9.93;;;13.20;99.90;;;;;;5032088;28;20459;-70
2024/03/21 00:20:10;;;;;;;11.40;10.30;;;13.10;99.90;;;;;;5033239;28;20429;-71
2024/03/21 00:22:40;;;;;;;12.10;9.63;;;13.10;99.90;;;;;;5032555;28;20467;-69
2024/03/21 00:25:08;;;;;;;12.60;10.93;;;13.00;99.90;;;;;;5034121;28;20429;-70
2024/03/21 00:27:35;;;;;;;10.23;9.10;;;13.00;99.90;;;;;;5033697;28;20433;-69
2024/03/21 00:30:02;;;;;;;12.50;10.30;;;13.00;99.90;;;;;;5032744;28;21033;-71
2024/03/21 00:32:28;;;;;;;10.90;9.27;;;12.90;99.90;;;;;;5033284;28;20475;-71
2024/03/21 00:34:54;;;;;;;14.33;11.67;;;12.90;99.90;;;;;;5034238;28;20551;-72
2024/03/21 00:37:21;;;;;;;12.77;11.40;;;12.90;99.90;;;;;;5033935;28;20606;-69
2024/03/21 00:39:50;;;;;;;11.50;10.20;;;12.90;99.90;;;;;;5033769;28;21121;-71
2024/03/21 00:42:16;;;;;;;12.50;10.23;;;12.80;99.90;;;;;;5034135;28;20519;-69
2024/03/21 00:44:42;;;;;;;11.90;10.70;;;12.80;99.90;;;;;;5031339;28;20614;-70
2024/03/21 00:47:08;;;;;;;13.10;10.70;;;12.80;99.90;;;;;;5032636;28;20201;-69
2024/03/21 00:49:34;;;;;;;11.23;9.63;;;12.80;99.90;;;;;;5033859;28;20758;-71
2024/03/21 00:52:00;;;;;;;12.37;11.03;;;12.80;99.90;;;;;;5032211;28;21218;-70
2024/03/21 00:54:26;;;;;;;11.93;10.27;;;12.80;99.90;;;;;;5033626;28;20463;-68
2024/03/21 00:56:52;;;;;;;13.77;11.70;;;12.70;99.90;;;;;;5032912;28;20182;-68
2024/03/21 00:59:19;;;;;;;12.97;10.53;;;12.70;99.90;;;;;;5033638;28;20247;-69
2024/03/21 01:01:45;;;;;;;11.70;10.50;;;12.70;99.90;;;;;;5033632;28;20800;-69
2024/03/21 01:04:11;;;;;;;10.63;9.40;;;12.70;99.90;;;;;;5032098;28;20425;-69
2024/03/21 01:06:37;;;;;;;13.87;11.37;;;12.70;99.90;;;;;;5031133;28;20602;-68
2024/03/21 01:09:02;;;;;;;13.37;11.63;;;12.60;99.90;;;;;;5032066;28;20190;-68
2024/03/21 01:11:28;;;;;;;12.30;11.10;;;12.60;99.90;;;;;;5033634;28;20201;-68
2024/03/21 01:13:54;;;;;;;12.40;10.20;;;12.60;99.90;;;;;;5034206;28;20240;-71
2024/03/21 01:16:19;;;;;;;14.20;10.80;;;12.70;99.90;;;;;;5033696;28;20185;-69
2024/03/21 01:18:45;;;;;;;12.00;10.70;;;12.70;99.90;;;;;;5032322;28;20801;-69
2024/03/21 01:21:11;;;;;;;11.27;10.07;;;12.70;99.90;;;;;;5031863;28;20281;-70
2024/03/21 01:23:37;;;;;;;11.63;10.50;;;12.70;99.90;;;;;;5032543;28;20660;-70
2024/03/21 01:26:03;;;;;;;12.67;11.37;;;12.80;99.90;;;;;;5032654;28;20464;-69
2024/03/21 01:28:30;;;;;;;13.00;11.60;;;12.80;99.90;;;;;;5032660;28;20648;-68
2024/03/21 01:30:59;;;;;;;18.23;10.53;;;12.80;99.90;;;;;;5018949;28;20435;-69
2024/03/21 01:33:25;;;;;;;14.30;11.70;;;12.90;99.90;;;;;;5031525;28;20487;-71
2024/03/21 01:35:51;;;;;;;14.70;12.07;;;12.90;99.90;;;;;;5030887;28;20425;-69
2024/03/21 01:38:17;;;;;;;16.97;11.07;;;12.90;99.90;;;;;;5033598;28;21296;-69
2024/03/21 01:40:42;;;;;;;17.20;12.23;;;13.00;99.90;;;;;;5018332;28;20190;-70
2024/03/21 01:43:23;;;;;;;15.60;12.00;;;13.00;99.90;;;;;;5035345;28;20194;-71
2024/03/21 01:46:15;;;;;;;12.93;11.63;;;13.10;99.90;;;;;;5035095;28;20212;-71
2024/03/21 01:48:46;;;;;;;13.20;11.80;;;13.10;99.90;;;;;;5031385;28;20447;-69
2024/03/21 01:51:18;;;;;;;14.57;12.50;;;13.20;99.90;;;;;;5033977;28;21210;-68
2024/03/21 01:53:50;;;;;;;12.90;11.50;;;13.20;99.90;;;;;;5034789;28;20456;-69
2024/03/21 01:56:16;;;;;;;17.03;11.83;;;13.20;99.90;;;;;;5036115;28;20459;-70
2024/03/21 01:58:42;;;;;;;14.33;11.70;;;13.20;99.90;;;;;;5034612;28;21123;-69
2024/03/21 02:01:29;;;;;;;15.20;13.10;;;13.30;99.90;;;;;;5036227;28;20953;-70
2024/03/21 02:03:57;;;;;;;16.37;14.03;;;13.20;99.90;;;;;;5035898;28;20535;-69
2024/03/21 02:06:24;;;;;;;20.10;13.73;;;13.30;99.90;;;;;;5034178;28;20915;-70
2024/03/21 02:08:53;;;;;;;20.03;15.10;;;13.30;99.90;;;;;;5036048;28;20487;-71
2024/03/21 02:11:20;;;;;;;14.77;13.17;;;13.30;99.90;;;;;;5033499;28;20432;-71
2024/03/21 02:13:46;;;;;;;18.37;15.47;;;13.40;99.90;;;;;;5034914;28;20507;-71
2024/03/21 02:16:13;;;;;;;17.13;15.40;;;13.40;99.90;;;;;;5034680;28;20827;-70
2024/03/21 02:18:38;;;;;;;19.37;15.33;;;13.40;99.90;;;;;;5034682;28;20182;-69
2024/03/21 02:21:06;;;;;;;18.30;16.10;;;13.40;99.90;;;;;;5035687;28;20428;-71
2024/03/21 02:23:33;;;;;;;15.90;14.30;;;13.50;99.90;;;;;;5034028;28;20525;-70
2024/03/21 02:26:00;;;;;;;20.63;15.43;;;13.50;99.90;;;;;;5035612;28;20429;-70
2024/03/21 02:28:25;;;;;;;17.77;15.00;;;13.50;99.90;;;;;;5034336;28;20508;-71
2024/03/21 02:30:52;;;;;;;20.30;17.37;;;13.50;99.90;;;;;;5035040;28;20429;-70
2024/03/21 02:33:19;;;;;;;17.53;15.00;;;13.50;99.90;;;;;;5034238;28;20249;-69
2024/03/21 02:35:45;;;;;;;17.60;15.57;;;13.60;99.90;;;;;;5034055;28;20486;-72
2024/03/21 02:38:11;;;;;;;20.37;17.07;;;13.60;99.90;;;;;;5034153;28;20437;-70
2024/03/21 02:40:36;;;;;;;17.53;15.77;;;13.60;99.90;;;;;;5034852;28;20224;-68
2024/03/21 02:43:02;;;;;;;21.17;16.30;;;13.60;99.90;;;;;;5035088;28;20332;-69
2024/03/21 02:45:28;;;;;;;20.60;16.50;;;13.60;99.90;;;;;;5033300;28;20175;-71
2024/03/21 02:47:53;;;;;;;19.60;17.50;;;13.60;99.90;;;;;;5034590;28;20730;-71
2024/03/21 02:50:19;;;;;;;21.03;18.03;;;13.60;99.90;;;;;;5036056;28;20269;-68
2024/03/21 02:52:45;;;;;;;22.40;17.67;;;13.60;99.90;;;;;;5036279;28;20289;-71
2024/03/21 02:55:10;;;;;;;20.03;17.90;;;13.60;99.90;;;;;;5036236;28;20647;-69
2024/03/21 02:57:36;;;;;;;25.83;18.80;;;13.60;99.90;;;;;;5036006;28;20288;-71
2024/03/21 03:00:02;;;;;;;20.10;16.77;;;13.60;99.90;;;;;;5036311;28;20194;-69
2024/03/21 03:02:28;;;;;;;24.20;18.83;;;13.50;99.90;;;;;;5034629;28;20222;-72
2024/03/21 03:04:54;;;;;;;22.90;19.37;;;13.50;99.90;;;;;;5036575;28;20454;-70
2024/03/21 03:07:20;;;;;;;20.87;18.20;;;13.60;99.90;;;;;;5034052;28;20228;-69
2024/03/21 03:09:45;;;;;;;21.70;18.87;;;13.50;99.90;;;;;;5035109;28;20745;-69
2024/03/21 03:12:11;;;;;;;23.17;18.77;;;13.50;99.90;;;;;;5036039;28;20300;-70
2024/03/21 03:14:37;;;;;;;23.00;20.50;;;13.50;99.90;;;;;;5033030;28;20209;-70
2024/03/21 03:17:02;;;;;;;22.50;20.10;;;13.50;99.90;;;;;;5033863;28;20364;-70
2024/03/21 03:19:28;;;;;;;22.60;20.20;;;13.50;99.90;;;;;;5035642;28;20652;-69
2024/03/21 03:21:54;;;;;;;22.57;20.10;;;13.50;99.90;;;;;;5036022;28;20212;-70
2024/03/21 03:24:20;;;;;;;25.20;21.30;;;13.40;99.90;;;;;;5033889;28;20455;-69
2024/03/21 03:26:45;;;;;;;25.97;21.03;;;13.40;99.90;;;;;;5035705;28;20175;-69
2024/03/21 03:29:11;;;;;;;25.40;20.83;;;13.40;99.90;;;;;;5034780;28;20698;-71
2024/03/21 03:31:37;;;;;;;24.13;21.60;;;13.40;99.90;;;;;;5034964;28;20194;-71
2024/03/21 03:36:47;;;;;;;24.47;20.90;;;13.40;99.90;;;;;;5035135;28;20507;-71
2024/03/21 03:39:13;;;;;;;26.73;22.40;;;13.40;99.90;;;;;;5034377;28;20440;-70
2024/03/21 03:41:39;;;;;;;24.73;20.83;;;13.40;99.90;;;;;;5034691;28;20194;-71
2024/03/21 03:44:05;;;;;;;28.20;24.20;;;13.40;99.90;;;;;;5033093;28;20437;-69
2024/03/21 03:46:31;;;;;;;28.10;23.90;;;13.40;99.90;;;;;;5033657;28;20263;-71
2024/03/21 03:48:57;;;;;;;25.40;22.73;;;13.40;99.90;;;;;;5035708;28;21137;-71
2024/03/21 03:51:22;;;;;;;24.73;22.07;;;13.40;99.90;;;;;;5034331;28;20951;-68
2024/03/21 03:53:50;;;;;;;27.73;23.97;;;13.40;99.90;;;;;;5034010;28;20283;-69
2024/03/21 03:56:16;;;;;;;27.40;22.53;;;13.30;99.90;;;;;;5034196;28;20425;-70
2024/03/21 03:58:42;;;;;;;24.83;22.23;;;13.30;99.90;;;;;;5035082;28;20435;-70
2024/03/21 04:01:08;;;;;;;26.57;23.07;;;13.30;99.90;;;;;;5033275;28;20299;-71
2024/03/21 04:03:33;;;;;;;26.27;22.10;;;13.30;99.90;;;;;;5034061;28;20195;-71
2024/03/21 04:06:03;;;;;;;28.23;23.90;;;13.30;99.90;;;;;;5034992;28;20182;-68
2024/03/21 04:08:29;;;;;;;29.73;24.00;;;13.30;99.90;;;;;;5032982;28;20182;-68
2024/03/21 04:10:56;;;;;;;26.20;22.47;;;13.30;99.90;;;;;;5033695;28;20912;-68
2024/03/21 04:13:22;;;;;;;27.90;23.10;;;13.40;99.90;;;;;;5033893;28;21050;-69
2024/03/21 04:15:55;;;;;;;28.37;23.87;;;13.30;99.90;;;;;;5034463;28;20420;-68
2024/03/21 04:18:21;;;;;;;27.63;23.37;;;13.30;99.90;;;;;;5032124;28;20298;-68
2024/03/21 04:20:50;;;;;;;27.73;22.70;;;13.30;99.90;;;;;;5034403;28;20425;-68
2024/03/21 04:23:15;;;;;;;29.10;23.33;;;13.30;99.90;;;;;;5033853;28;20432;-68
2024/03/21 04:25:41;;;;;;;30.50;24.07;;;13.30;99.90;;;;;;5034570;28;20413;-69
2024/03/21 04:28:07;;;;;;;27.90;23.93;;;13.30;99.90;;;;;;5033633;28;20193;-70
2024/03/21 04:30:32;;;;;;;25.63;22.70;;;13.30;99.90;;;;;;5033995;28;20210;-69
2024/03/21 04:32:58;;;;;;;27.80;23.60;;;13.30;99.90;;;;;;5034646;28;20282;-70
2024/03/21 04:35:24;;;;;;;31.37;22.50;;;13.40;99.90;;;;;;5033144;28;20185;-70
2024/03/21 04:37:50;;;;;;;26.03;21.97;;;13.30;99.90;;;;;;5033155;28;20182;-70
2024/03/21 04:40:15;;;;;;;28.27;21.90;;;13.40;99.90;;;;;;5033277;28;20186;-68
2024/03/21 04:42:41;;;;;;;24.03;21.43;;;13.30;99.90;;;;;;5034697;28;20181;-69
2024/03/21 04:45:07;;;;;;;34.67;23.27;;;13.40;99.90;;;;;;5032866;28;20526;-69
2024/03/21 04:47:33;;;;;;;30.20;23.97;;;13.40;99.90;;;;;;5033980;28;20657;-68
2024/03/21 04:49:59;;;;;;;27.77;22.27;;;13.40;99.90;;;;;;5034026;28;20791;-69
2024/03/21 04:52:27;;;;;;;29.50;23.33;;;13.40;99.90;;;;;;5033304;28;20431;-69
2024/03/21 04:54:53;;;;;;;29.50;24.70;;;13.30;99.90;;;;;;5034794;28;20566;-70
2024/03/21 04:57:18;;;;;;;30.43;22.70;;;13.40;99.90;;;;;;5032373;28;20487;-69
2024/03/21 04:59:44;;;;;;;28.90;23.00;;;13.30;99.90;;;;;;5032616;28;20429;-70
2024/03/21 05:02:10;;;;;;;28.10;21.30;;;13.30;99.90;;;;;;5032523;28;20216;-68
2024/03/21 05:04:36;;;;;;;31.57;20.97;;;13.30;99.90;;;;;;5034150;28;20178;-70
2024/03/21 05:07:02;;;;;;;31.20;19.50;;;13.30;99.90;;;;;;5034491;28;20239;-68
2024/03/21 05:09:27;;;;;;;25.60;18.50;;;13.20;99.90;;;;;;5033275;28;20428;-70
2024/03/21 05:11:53;;;;;;;24.67;17.90;;;13.20;99.90;;;;;;5034276;28;20265;-69
2024/03/21 05:14:19;;;;;;;24.27;18.30;;;13.20;99.90;;;;;;5030493;28;20929;-70
2024/03/21 05:16:44;;;;;;;27.37;19.67;;;13.20;99.90;;;;;;5034200;28;20276;-70
2024/03/21 05:19:13;;;;;;;23.53;16.43;;;13.20;99.90;;;;;;5036966;28;20682;-68
2024/03/21 05:21:40;;;;;;;23.40;15.80;;;13.20;99.90;;;;;;5036831;28;20283;-68
2024/03/21 05:24:06;;;;;;;21.43;14.57;;;13.20;99.90;;;;;;5037460;28;20421;-69
2024/03/21 05:26:32;;;;;;;18.83;14.30;;;13.10;99.90;;;;;;5037129;28;20436;-68
2024/03/21 05:28:58;;;;;;;18.87;14.90;;;13.10;99.90;;;;;;5037960;28;20468;-69
2024/03/21 05:31:25;;;;;;;20.10;14.27;;;13.10;99.90;;;;;;5037034;28;21105;-69
2024/03/21 05:33:52;;;;;;;19.70;14.30;;;13.10;99.90;;;;;;5035918;28;21110;-70
2024/03/21 05:36:17;;;;;;;17.83;12.90;;;13.10;99.90;;;;;;5031706;28;20443;-70
2024/03/21 05:38:47;;;;;;;18.63;12.80;;;13.00;99.90;;;;;;5035412;28;20432;-70
2024/03/21 05:41:13;;;;;;;17.00;13.17;;;13.00;99.90;;;;;;5036573;28;20182;-70
2024/03/21 05:43:39;;;;;;;19.07;13.63;;;13.00;99.90;;;;;;5036282;28;20424;-69
2024/03/21 05:46:05;;;;;;;16.40;12.60;;;13.00;99.90;;;;;;5036348;28;20592;-69
2024/03/21 05:48:34;;;;;;;20.50;13.30;;;13.00;99.90;;;;;;5035496;28;20331;-70
2024/03/21 05:51:01;;;;;;;19.57;13.27;;;12.90;99.90;;;;;;5036629;28;20558;-69
2024/03/21 05:53:27;;;;;;;16.47;11.90;;;13.00;99.90;;;;;;5036290;28;20894;-70
2024/03/21 05:56:00;;;;;;;16.63;12.90;;;13.00;99.90;;;;;;5035214;28;20433;-69
2024/03/21 05:58:26;;;;;;;18.00;14.20;;;13.00;99.90;;;;;;5031914;28;20428;-69
2024/03/21 06:01:21;;;;;;;18.50;14.80;;;12.90;99.90;;;;;;5035428;28;20452;-70
2024/03/21 06:03:47;;;;;;;17.67;12.70;;;12.90;99.90;;;;;;5035888;28;20444;-68
2024/03/21 06:06:13;;;;;;;19.97;14.83;;;12.90;99.90;;;;;;5032942;28;20444;-69
2024/03/21 06:08:38;;;;;;;23.33;15.00;;;12.90;99.90;;;;;;5035072;28;20249;-67
2024/03/21 06:11:04;;;;;;;23.13;16.13;;;13.00;99.90;;;;;;5035912;28;20991;-68
2024/03/21 06:13:30;;;;;;;22.43;15.70;;;13.00;99.90;;;;;;5035969;28;20202;-70
2024/03/21 06:15:56;;;;;;;21.30;15.70;;;12.90;99.90;;;;;;5036500;28;20464;-67
2024/03/21 06:18:23;;;;;;;17.83;15.10;;;12.90;99.90;;;;;;5035746;28;20441;-68
2024/03/21 06:20:48;;;;;;;18.80;15.40;;;12.90;99.90;;;;;;5036078;28;20186;-68
2024/03/21 06:23:14;;;;;;;19.23;14.70;;;12.90;99.90;;;;;;5035754;28;20541;-71
2024/03/21 06:25:41;;;;;;;20.23;15.50;;;12.90;99.90;;;;;;5035445;28;20192;-70
2024/03/21 06:28:07;;;;;;;22.60;16.10;;;12.90;99.90;;;;;;5032360;28;20182;-68
2024/03/21 06:30:34;;;;;;;21.17;16.07;;;12.90;99.90;;;;;;5034605;28;20840;-70
2024/03/21 06:33:00;;;;;;;19.40;15.67;;;12.90;99.90;;;;;;5035233;28;20551;-69
2024/03/21 06:35:29;;;;;;;23.30;17.00;;;12.90;99.90;;;;;;5033792;28;20921;-69
2024/03/21 06:37:57;;;;;;;23.20;17.07;;;12.90;99.90;;;;;;5032242;28;20173;-70
2024/03/21 06:40:23;;;;;;;22.73;17.80;;;12.90;99.90;;;;;;5034283;28;20429;-70
2024/03/21 06:42:50;;;;;;;23.40;18.97;;;13.00;99.90;;;;;;5035590;28;20425;-69
2024/03/21 06:45:15;;;;;;;23.57;19.33;;;13.00;99.90;;;;;;5034444;28;20428;-69
2024/03/21 06:47:44;;;;;;;22.23;17.97;;;13.00;99.90;;;;;;5035654;28;21345;-69
2024/03/21 06:50:16;;;;;;;26.00;21.03;;;13.00;99.90;;;;;;5035164;28;20261;-70
2024/03/21 06:52:49;;;;;;;25.10;20.23;;;12.90;99.90;;;;;;5035104;28;20424;-70
2024/03/21 06:55:16;;;;;;;29.37;20.10;;;12.90;99.90;;;;;;5032566;28;20435;-69
2024/03/21 06:57:44;;;;;;;27.37;20.73;;;12.90;99.90;;;;;;5034637;28;20765;-69
2024/03/21 07:00:13;;;;;;;28.37;20.17;;;13.00;99.90;;;;;;5034756;28;20940;-68
2024/03/21 07:02:39;;;;;;;26.87;20.93;;;12.90;99.90;;;;;;5035055;28;20436;-70
2024/03/21 07:05:09;;;;;;;26.37;20.50;;;12.90;99.90;;;;;;5035149;28;20425;-70
2024/03/21 07:07:35;;;;;;;29.43;21.97;;;13.00;99.90;;;;;;5034631;28;20448;-69
2024/03/21 07:10:02;;;;;;;28.87;21.83;;;12.90;99.90;;;;;;5031765;28;20763;-68
2024/03/21 07:12:28;;;;;;;25.10;18.87;;;12.90;99.90;;;;;;5034427;28;20432;-70
2024/03/21 07:14:54;;;;;;;26.47;20.17;;;12.90;99.90;;;;;;5034522;28;20464;-69
2024/03/21 07:17:20;;;;;;;27.73;20.00;;;12.90;99.90;;;;;;5033379;28;20193;-68
2024/03/21 07:19:47;;;;;;;22.00;17.90;;;12.90;99.90;;;;;;5031952;28;20843;-68
2024/03/21 07:22:12;;;;;;;18.43;15.70;;;12.90;99.90;;;;;;5032185;28;20786;-70
2024/03/21 07:24:38;;;;;;;22.40;17.53;;;13.00;99.90;;;;;;5032071;28;20425;-71
2024/03/21 07:27:04;;;;;;;18.77;16.20;;;13.00;99.90;;;;;;5030663;28;20437;-67
2024/03/21 07:29:30;;;;;;;21.07;16.67;;;13.00;99.90;;;;;;5034186;28;20186;-68
2024/03/21 07:31:56;;;;;;;23.30;16.50;;;13.10;99.90;;;;;;5032767;28;20503;-70
2024/03/21 07:34:23;;;;;;;24.23;15.70;;;13.20;99.90;;;;;;5034146;28;20210;-69
2024/03/21 07:36:49;;;;;;;23.10;17.77;;;13.20;99.90;;;;;;5034267;28;20429;-69
2024/03/21 07:39:14;;;;;;;23.50;17.90;;;13.30;99.90;;;;;;5032134;28;20428;-67
2024/03/21 07:41:40;;;;;;;18.97;15.00;;;13.40;99.90;;;;;;5033270;28;20433;-68
2024/03/21 07:44:08;;;;;;;20.07;16.20;;;13.40;99.90;;;;;;5031787;28;20228;-69
2024/03/21 07:46:34;;;;;;;19.00;16.13;;;13.40;99.90;;;;;;5033386;28;20561;-68
2024/03/21 07:49:01;;;;;;;18.37;15.77;;;13.50;99.90;;;;;;5033602;28;20443;-68
2024/03/21 07:51:27;;;;;;;20.80;15.80;;;13.50;99.90;;;;;;5033222;28;20795;-70
2024/03/21 07:53:57;;;;;;;19.77;15.40;;;13.50;99.90;;;;;;5033578;28;20480;-70
2024/03/21 07:56:23;;;;;;;17.90;14.53;;;13.50;99.90;;;;;;5033541;28;21185;-68
2024/03/21 07:58:49;;;;;;;19.30;13.70;;;13.50;99.90;;;;;;5033747;28;20433;-69
2024/03/21 08:01:15;;;;;;;13.17;11.77;;;13.50;99.90;;;;;;5033635;28;20792;-70
2024/03/21 08:03:41;;;;;;;14.70;12.23;;;13.60;99.90;;;;;;5033709;28;20209;-68
2024/03/21 08:06:06;;;;;;;14.47;11.50;;;13.70;99.90;;;;;;5032115;28;20197;-70
2024/03/21 08:08:32;;;;;;;14.13;12.63;;;13.80;99.90;;;;;;5033633;28;20182;-70
2024/03/21 08:10:59;;;;;;;12.87;11.53;;;13.90;99.90;;;;;;5032009;28;20186;-68
2024/03/21 08:13:25;;;;;;;13.70;11.57;;;14.00;99.90;;;;;;5033431;28;20229;-68
2024/03/21 08:15:52;;;;;;;13.93;11.70;;;14.10;99.90;;;;;;5033241;28;20430;-68
2024/03/21 08:18:19;;;;;;;12.40;11.20;;;14.20;99.90;;;;;;5032806;28;20468;-69
2024/03/21 08:20:47;;;;;;;14.27;12.80;;;14.30;99.90;;;;;;5033744;28;20424;-69
2024/03/21 08:23:14;;;;;;;14.23;12.63;;;14.30;99.90;;;;;;5032311;28;20489;-70
2024/03/21 08:25:40;;;;;;;15.00;13.33;;;14.30;99.90;;;;;;5033047;28;20762;-67
2024/03/21 08:28:06;;;;;;;13.03;11.67;;;14.30;99.90;;;;;;5032792;28;21364;-70
2024/03/21 08:30:32;;;;;;;12.23;10.97;;;14.40;99.90;;;;;;5031925;28;20436;-67
2024/03/21 08:32:58;;;;;;;13.53;10.03;;;14.40;99.90;;;;;;5032519;28;20437;-68
2024/03/21 08:35:24;;;;;;;10.10;8.73;;;14.40;99.90;;;;;;5032610;28;20195;-68
2024/03/21 08:37:49;;;;;;;11.30;9.30;;;14.40;99.90;;;;;;5032807;28;20426;-70
2024/03/21 08:40:15;;;;;;;9.13;8.23;;;14.50;99.90;;;;;;5032845;28;20626;-68
2024/03/21 08:42:41;;;;;;;11.37;10.03;;;14.50;99.90;;;;;;5031991;28;20181;-71
2024/03/21 08:45:09;;;;;;;12.33;9.00;;;14.50;99.90;;;;;;5030611;28;20247;-69
2024/03/21 08:47:38;;;;;;;9.33;7.70;;;14.60;99.90;;;;;;5031295;28;20193;-68
2024/03/21 08:50:04;;;;;;;9.63;8.63;;;14.60;99.90;;;;;;5031821;28;20436;-69
2024/03/21 08:52:30;;;;;;;10.70;9.60;;;14.60;99.90;;;;;;5033648;28;20547;-68
2024/03/21 08:54:56;;;;;;;12.50;9.93;;;14.60;99.90;;;;;;5035643;28;20467;-69
2024/03/21 08:57:22;;;;;;;11.50;10.33;;;14.50;99.90;;;;;;5034797;28;20189;-68
2024/03/21 08:59:50;;;;;;;12.17;10.30;;;14.40;99.90;;;;;;5035783;28;20285;-67
2024/03/21 09:02:17;;;;;;;13.33;10.53;;;14.50;99.90;;;;;;5035834;28;20438;-68
2024/03/21 09:04:43;;;;;;;11.63;8.80;;;14.50;99.90;;;;;;5068018;28;20832;-71
2024/03/21 09:07:09;;;;;;;11.00;8.60;;;14.50;99.90;;;;;;5035741;28;20532;-70
2024/03/21 09:09:35;;;;;;;10.43;9.23;;;14.50;99.90;;;;;;5036732;28;20186;-70
2024/03/21 09:12:02;;;;;;;12.47;10.60;;;14.60;99.90;;;;;;5036320;28;20441;-70
2024/03/21 09:14:28;;;;;;;14.63;13.13;;;14.60;99.90;;;;;;5036302;28;20483;-71
2024/03/21 09:16:53;;;;;;;15.23;12.87;;;14.60;99.90;;;;;;5034776;28;20822;-69
2024/03/21 09:19:19;;;;;;;14.80;12.67;;;14.60;99.90;;;;;;5036973;28;20316;-70
2024/03/21 09:21:46;;;;;;;14.87;12.43;;;14.60;99.90;;;;;;5035284;28;20182;-68
2024/03/21 09:24:12;;;;;;;14.23;12.80;;;14.60;99.90;;;;;;5036265;28;20617;-69
2024/03/21 09:26:40;;;;;;;14.00;12.50;;;14.50;99.90;;;;;;5036364;28;20416;-69
2024/03/21 09:29:05;;;;;;;14.07;12.60;;;14.50;99.90;;;;;;5036321;28;20891;-68
2024/03/21 09:31:31;;;;;;;15.10;13.60;;;14.40;99.90;;;;;;5036399;28;20448;-67
2024/03/21 09:34:00;;;;;;;16.13;14.47;;;14.40;99.90;;;;;;5035221;28;20598;-69
2024/03/21 09:36:26;;;;;;;15.53;13.73;;;14.40;99.90;;;;;;5035957;28;20232;-72
2024/03/21 09:38:53;;;;;;;14.50;13.00;;;14.30;99.90;;;;;;5034821;28;20931;-69
2024/03/21 09:41:18;;;;;;;13.53;12.10;;;14.30;99.90;;;;;;5036432;28;20439;-70
2024/03/21 09:43:44;;;;;;;15.93;14.20;;;14.30;99.90;;;;;;5035094;28;21095;-70
2024/03/21 09:46:17;;;;;;;17.63;15.67;;;14.20;99.90;;;;;;5035815;28;20182;-67
2024/03/21 09:48:44;;;;;;;17.70;15.57;;;14.20;99.90;;;;;;5035884;28;20264;-71
2024/03/21 09:51:26;;;;;;;19.33;16.37;;;14.20;99.90;;;;;;5035789;28;20447;-68
2024/03/21 09:53:51;;;;;;;16.93;15.13;;;14.30;99.90;;;;;;5035288;28;20468;-71
2024/03/21 09:56:18;;;;;;;19.33;16.53;;;14.40;99.90;;;;;;5035396;28;20431;-70
2024/03/21 09:58:45;;;;;;;18.40;16.60;;;14.40;99.90;;;;;;5035721;28;20519;-70
2024/03/21 10:01:24;;;;;;;18.57;16.77;;;14.50;99.90;;;;;;5036020;28;20524;-69
2024/03/21 10:03:57;;;;;;;18.13;16.33;;;14.50;99.90;;;;;;5034646;28;20429;-70
2024/03/21 10:06:24;;;;;;;18.53;16.53;;;14.60;99.90;;;;;;5034790;28;20425;-68
2024/03/21 10:08:51;;;;;;;20.37;18.20;;;14.50;99.90;;;;;;5035069;28;20440;-70
2024/03/21 10:11:17;;;;;;;20.13;18.23;;;14.40;99.90;;;;;;5036230;28;20425;-68
2024/03/21 10:13:43;;;;;;;15.13;13.73;;;14.50;99.90;;;;;;5035156;28;20475;-69
2024/03/21 10:16:11;;;;;;;15.43;13.87;;;14.40;99.90;;;;;;5035488;28;20443;-70
2024/03/21 10:18:38;;;;;;;14.20;12.90;;;14.30;99.90;;;;;;5035074;28;20182;-70
2024/03/21 10:21:04;;;;;;;13.90;12.57;;;14.30;99.90;;;;;;5018036;28;20491;-68
2024/03/21 10:23:30;;;;;;;13.93;12.60;;;14.30;99.90;;;;;;5035720;28;20432;-70
2024/03/21 10:25:55;;;;;;;14.43;13.03;;;14.20;99.90;;;;;;5034756;28;20240;-70
2024/03/21 10:28:21;;;;;;;15.13;13.77;;;14.30;99.90;;;;;;5034833;28;20671;-70
2024/03/21 10:30:48;;;;;;;16.97;15.30;;;14.30;99.90;;;;;;5033737;28;20608;-70
2024/03/21 10:33:17;;;;;;;20.10;18.00;;;14.40;99.90;;;;;;5035047;28;20559;-69
2024/03/21 10:35:44;;;;;;;18.70;16.80;;;14.50;99.90;;;;;;5033744;28;20635;-71
2024/03/21 10:38:14;;;;;;;23.07;20.80;;;14.60;99.90;;;;;;5035152;28;20441;-70
2024/03/21 10:41:03;;;;;;;20.87;18.60;;;14.70;99.90;;;;;;5034113;28;20433;-68
2024/03/21 10:43:31;;;;;;;21.67;19.47;;;14.80;99.90;;;;;;5034420;28;20918;-70
2024/03/21 10:45:59;;;;;;;24.20;21.60;;;14.90;99.90;;;;;;5033075;28;20429;-70
2024/03/21 10:48:28;;;;;;;23.10;20.70;;;15.10;99.90;;;;;;5034510;28;20447;-69
2024/03/21 10:50:54;;;;;;;22.10;19.73;;;15.20;99.90;;;;;;5034030;28;20780;-69
2024/03/21 10:53:21;;;;;;;20.50;18.50;;;15.20;99.90;;;;;;5034692;28;20464;-69
2024/03/21 10:55:51;;;;;;;21.00;17.80;;;15.30;99.90;;;;;;5034520;28;20428;-71
2024/03/21 10:58:18;;;;;;;20.80;18.00;;;15.30;99.90;;;;;;5034531;28;20942;-70
2024/03/21 11:00:55;;;;;;;18.80;16.80;;;15.30;99.90;;;;;;5034035;28;20968;-70
2024/03/21 11:03:20;;;;;;;17.83;16.10;;;15.40;99.90;;;;;;5034897;28;20441;-71
2024/03/21 11:05:53;;;;;;;16.93;15.20;;;15.30;99.90;;;;;;5033940;28;20997;-69
2024/03/21 11:08:24;;;;;;;16.07;14.57;;;15.30;99.90;;;;;;5033060;28;20428;-68
2024/03/21 11:10:51;;;;;;;16.80;15.20;;;15.30;99.90;;;;;;5032837;28;20429;-70
2024/03/21 11:13:17;;;;;;;19.07;17.17;;;15.30;99.90;;;;;;5034873;28;20468;-69
2024/03/21 11:15:42;;;;;;;18.47;16.50;;;15.20;99.90;;;;;;5032626;28;20425;-66
2024/03/21 11:18:10;;;;;;;14.23;13.00;;;15.10;99.90;;;;;;5034749;28;21257;-71
2024/03/21 11:20:35;;;;;;;12.63;11.47;;;15.10;99.90;;;;;;5033750;28;20186;-65
2024/03/21 11:23:01;;;;;;;12.20;11.00;;;15.00;99.90;;;;;;5034262;28;20433;-68
2024/03/21 11:25:27;;;;;;;13.30;11.90;;;15.00;99.90;;;;;;5032906;28;20182;-68
2024/03/21 11:27:53;;;;;;;16.13;13.73;;;15.10;99.90;;;;;;5033255;28;20178;-71
2024/03/21 11:30:19;;;;;;;16.30;14.37;;;15.10;99.90;;;;;;5034252;28;20598;-68
2024/03/21 11:32:44;;;;;;;16.37;14.77;;;15.20;99.90;;;;;;5034031;28;20464;-69
2024/03/21 11:35:10;;;;;;;16.50;14.90;;;15.20;99.90;;;;;;5034122;28;20249;-68
2024/03/21 11:37:36;;;;;;;16.10;14.07;;;15.30;99.90;;;;;;5034018;28;20680;-70
2024/03/21 11:40:02;;;;;;;24.93;12.47;;;15.30;99.90;;;;;;5034263;28;20278;-69
2024/03/21 11:42:28;;;;;;;17.40;11.50;;;15.40;99.90;;;;;;5034360;28;20905;-68
2024/03/21 11:44:54;;;;;;;11.33;10.13;;;15.50;99.90;;;;;;5049096;28;20543;-69
2024/03/21 11:47:20;;;;;;;13.67;10.17;;;15.60;99.90;;;;;;5034369;28;20197;-68
2024/03/21 11:49:50;;;;;;;11.63;10.43;;;15.60;99.90;;;;;;5033402;28;20265;-67
2024/03/21 11:52:17;;;;;;;11.00;9.90;;;15.60;99.90;;;;;;5034052;28;20432;-70
2024/03/21 11:54:43;;;;;;;10.57;9.57;;;15.50;99.90;;;;;;5033673;28;20467;-68
2024/03/21 11:57:12;;;;;;;9.63;8.73;;;15.50;99.90;;;;;;5033308;28;20451;-69
2024/03/21 11:59:41;;;;;;;10.13;9.13;;;15.50;99.90;;;;;;5033150;28;22568;-70
2024/03/21 12:02:11;;;;;;;8.60;7.90;;;15.50;99.90;;;;;;5033932;28;20441;-70
2024/03/21 12:04:37;;;;;;;17.60;9.23;;;15.40;99.90;;;;;;5033819;28;20847;-69
2024/03/21 12:07:02;;;;;;;10.00;8.40;;;15.50;99.90;;;;;;5034540;28;20429;-69
2024/03/21 12:09:28;;;;;;;9.53;8.53;;;15.50;99.90;;;;;;5033767;28;20694;-70
2024/03/21 12:11:54;;;;;;;10.80;9.27;;;15.50;99.90;;;;;;5033082;28;20178;-70
2024/03/21 12:14:19;;;;;;;10.63;9.73;;;15.50;99.90;;;;;;5033649;28;20571;-70
2024/03/21 12:16:45;;;;;;;18.73;10.20;;;15.60;99.90;;;;;;5033301;28;20266;-69
2024/03/21 12:19:11;;;;;;;10.73;8.90;;;15.60;99.90;;;;;;5033774;28;20201;-68
2024/03/21 12:21:36;;;;;;;17.50;8.40;;;15.80;99.90;;;;;;5032835;28;20182;-70
2024/03/21 12:24:02;;;;;;;7.93;7.23;;;15.90;99.90;;;;;;5034254;28;20242;-68
2024/03/21 12:26:28;;;;;;;10.03;9.00;;;16.00;99.90;;;;;;5032339;28;20190;-70
2024/03/21 12:28:55;;;;;;;8.20;7.40;;;16.00;99.90;;;;;;5033607;28;20663;-69